createdAt,value
2023-02-22T00:01:38.248Z,58.90
2023-02-22T00:04:06.509Z,59.50
2023-02-22T00:06:33.572Z,58.80
2023-02-22T00:09:02.402Z,59.00
2023-02-22T00:11:29.227Z,59.00
2023-02-22T00:13:57.483Z,59.10
2023-02-22T00:16:24.979Z,59.20
2023-02-22T00:18:51.952Z,59.10
2023-02-22T00:21:19.026Z,59.10
2023-02-22T00:23:46.858Z,59.10
2023-02-22T00:26:18.354Z,59.10
2023-02-22T00:28:50.044Z,58.90
2023-02-22T00:31:17.244Z,59.00
2023-02-22T00:33:44.488Z,59.00
2023-02-22T00:36:12.105Z,59.00
2023-02-22T00:38:39.126Z,59.10
2023-02-22T00:41:06.006Z,58.90
2023-02-22T00:43:33.048Z,58.80
2023-02-22T00:46:00.085Z,58.90
2023-02-22T00:48:26.899Z,58.90
2023-02-22T00:50:55.375Z,59.00
2023-02-22T00:53:23.388Z,59.00
2023-02-22T00:55:50.594Z,59.10
2023-02-22T00:58:18.662Z,59.70
2023-02-22T01:00:45.688Z,59.70
2023-02-22T01:03:13.463Z,59.20
2023-02-22T01:05:40.287Z,59.10
2023-02-22T01:08:08.619Z,59.20
2023-02-22T01:10:35.582Z,59.30
2023-02-22T01:13:06.850Z,59.30
2023-02-22T01:15:33.585Z,59.90
2023-02-22T01:18:00.334Z,59.40
2023-02-22T01:20:27.739Z,59.30
2023-02-22T01:22:56.235Z,59.30
2023-02-22T01:25:25.226Z,59.20
2023-02-22T01:27:52.335Z,59.30
2023-02-22T01:30:22.200Z,59.20
2023-02-22T01:32:51.105Z,59.20
2023-02-22T01:35:20.490Z,59.80
2023-02-22T01:37:47.204Z,59.80
2023-02-22T01:40:28.662Z,59.20
2023-02-22T01:42:57.846Z,59.10
2023-02-22T01:45:30.971Z,59.80
2023-02-22T01:47:58.605Z,59.30
2023-02-22T01:50:25.366Z,59.20
2023-02-22T01:52:52.164Z,59.80
2023-02-22T01:55:18.912Z,59.30
2023-02-22T01:57:45.683Z,59.30
2023-02-22T02:00:16.871Z,59.30
2023-02-22T02:02:48.289Z,59.30
2023-02-22T02:05:15.182Z,59.10
2023-02-22T02:07:43.885Z,59.00
2023-02-22T02:10:14.531Z,59.60
2023-02-22T02:12:46.009Z,59.20
2023-02-22T02:15:26.399Z,59.10
2023-02-22T02:17:54.447Z,59.20
2023-02-22T02:20:40.171Z,59.20
2023-02-22T02:23:45.491Z,59.10
2023-02-22T02:26:33.209Z,59.20
2023-02-22T02:29:00.221Z,59.30
2023-02-22T02:31:35.816Z,59.30
2023-02-22T02:34:18.629Z,59.30
2023-02-22T02:36:52.977Z,59.30
2023-02-22T02:39:26.259Z,59.30
2023-02-22T02:41:53.012Z,59.20
2023-02-22T02:44:22.532Z,59.20
2023-02-22T02:47:00.310Z,59.40
2023-02-22T02:49:33.996Z,59.30
2023-02-22T02:52:00.929Z,59.20
2023-02-22T02:54:27.916Z,59.20
2023-02-22T02:56:56.327Z,59.10
2023-02-22T02:59:29.213Z,59.30
2023-02-22T03:02:13.213Z,59.40
2023-02-22T03:05:22.768Z,59.60
2023-02-22T03:08:17.295Z,59.60
2023-02-22T03:11:14.999Z,59.50
2023-02-22T03:13:55.692Z,59.50
2023-02-22T03:16:45.654Z,59.50
2023-02-22T03:19:32.361Z,60.00
2023-02-22T03:22:08.994Z,59.40
2023-02-22T03:24:55.986Z,59.50
2023-02-22T03:27:43.900Z,59.60
2023-02-22T03:30:31.991Z,59.50
2023-02-22T03:33:12.498Z,59.50
2023-02-22T03:36:01.060Z,60.20
2023-02-22T03:38:29.088Z,59.60
2023-02-22T03:40:59.258Z,59.60
2023-02-22T03:43:47.301Z,59.60
2023-02-22T03:46:14.059Z,59.60
2023-02-22T03:48:47.008Z,59.60
2023-02-22T03:51:17.455Z,59.60
2023-02-22T03:53:50.425Z,59.60
2023-02-22T03:56:26.162Z,59.60
2023-02-22T03:58:52.971Z,59.60
2023-02-22T04:01:20.046Z,60.30
2023-02-22T04:03:46.951Z,59.60
2023-02-22T04:06:13.829Z,59.60
2023-02-22T04:08:40.642Z,59.70
2023-02-22T04:11:07.386Z,59.60
2023-02-22T04:13:34.164Z,59.50
2023-02-22T04:16:00.981Z,59.50
2023-02-22T04:18:27.749Z,59.60
2023-02-22T04:20:54.556Z,59.70
2023-02-22T04:23:21.407Z,59.80
2023-02-22T04:25:48.241Z,59.60
2023-02-22T04:28:15.073Z,59.70
2023-02-22T04:30:43.924Z,59.70
2023-02-22T04:33:10.990Z,59.60
2023-02-22T04:35:37.967Z,59.50
2023-02-22T04:38:04.941Z,59.70
2023-02-22T04:40:31.880Z,59.70
2023-02-22T04:43:00.203Z,59.70
2023-02-22T04:45:27.022Z,59.80
2023-02-22T04:47:53.782Z,59.90
2023-02-22T04:50:20.612Z,60.00
2023-02-22T04:52:47.504Z,60.60
2023-02-22T04:55:14.244Z,59.70
2023-02-22T04:57:41.001Z,59.80
2023-02-22T05:00:10.311Z,59.80
2023-02-22T05:02:40.238Z,59.80
2023-02-22T05:05:07.191Z,59.90
2023-02-22T05:07:34.063Z,59.90
2023-02-22T05:10:03.111Z,59.90
2023-02-22T05:12:30.184Z,60.00
2023-02-22T05:14:56.975Z,60.00
2023-02-22T05:17:23.830Z,60.20
2023-02-22T05:19:50.581Z,61.00
2023-02-22T05:22:17.765Z,60.30
2023-02-22T05:24:44.571Z,61.10
2023-02-22T05:27:11.933Z,60.10
2023-02-22T05:29:38.721Z,60.20
2023-02-22T05:32:06.819Z,60.10
2023-02-22T05:34:33.675Z,60.00
2023-02-22T05:37:00.456Z,60.00
2023-02-22T05:39:27.264Z,60.90
2023-02-22T05:41:54.018Z,60.10
2023-02-22T05:44:20.872Z,60.10
2023-02-22T05:46:47.702Z,60.00
2023-02-22T05:49:14.593Z,60.00
2023-02-22T05:51:41.785Z,60.00
2023-02-22T05:54:08.623Z,60.10
2023-02-22T05:56:36.564Z,60.00
2023-02-22T05:59:03.402Z,60.00
2023-02-22T06:01:30.204Z,60.00
2023-02-22T06:03:57.096Z,60.10
2023-02-22T06:06:24.082Z,60.10
2023-02-22T06:08:51.033Z,60.20
2023-02-22T06:11:19.833Z,60.40
2023-02-22T06:13:53.144Z,60.30
2023-02-22T06:16:21.348Z,60.20
2023-02-22T06:18:48.655Z,60.10
2023-02-22T06:21:15.711Z,60.30
2023-02-22T06:23:42.877Z,60.30
2023-02-22T06:26:09.658Z,60.30
2023-02-22T06:28:36.857Z,60.40
2023-02-22T06:31:03.958Z,60.60
2023-02-22T06:33:30.804Z,60.90
2023-02-22T06:35:57.580Z,61.10
2023-02-22T06:38:24.988Z,61.00
2023-02-22T06:40:52.054Z,61.00
2023-02-22T06:43:19.178Z,61.10
2023-02-22T06:45:46.529Z,61.30
2023-02-22T06:48:13.508Z,61.20
2023-02-22T06:50:40.282Z,61.30
2023-02-22T06:53:07.097Z,61.10
2023-02-22T06:55:34.810Z,61.10
2023-02-22T06:58:02.641Z,61.10
2023-02-22T07:00:30.087Z,61.30
2023-02-22T07:02:57.257Z,61.40
2023-02-22T07:05:24.386Z,61.50
2023-02-22T07:07:52.675Z,61.60
2023-02-22T07:10:45.141Z,61.70
2023-02-22T07:13:11.889Z,61.80
2023-02-22T07:15:38.749Z,61.90
2023-02-22T07:18:05.741Z,62.00
2023-02-22T07:20:32.631Z,61.90
2023-02-22T07:22:59.636Z,61.90
2023-02-22T07:25:26.625Z,62.90
2023-02-22T07:27:54.700Z,62.20
2023-02-22T07:30:26.379Z,62.60
2023-02-22T07:32:54.211Z,62.30
2023-02-22T07:35:25.994Z,62.30
2023-02-22T07:37:55.429Z,62.40
2023-02-22T07:40:22.677Z,62.50
2023-02-22T07:42:52.902Z,62.60
2023-02-22T07:45:20.082Z,62.50
2023-02-22T07:47:47.686Z,62.60
2023-02-22T07:50:15.623Z,62.70
2023-02-22T07:52:47.008Z,62.70
2023-02-22T07:55:17.957Z,62.70
2023-02-22T07:57:48.667Z,62.80
2023-02-22T08:00:17.241Z,63.30
2023-02-22T08:02:44.030Z,63.50
2023-02-22T08:05:11.110Z,63.60
2023-02-22T08:07:38.236Z,63.60
2023-02-22T08:10:07.434Z,63.60
2023-02-22T08:12:36.142Z,63.30
2023-02-22T08:15:07.298Z,63.30
2023-02-22T08:17:34.174Z,63.80
2023-02-22T08:20:01.234Z,64.10
2023-02-22T08:22:29.378Z,64.10
2023-02-22T08:24:56.114Z,64.20
2023-02-22T08:27:31.971Z,64.20
2023-02-22T08:29:58.722Z,64.10
2023-02-22T08:32:25.768Z,64.00
2023-02-22T08:34:52.795Z,63.70
2023-02-22T08:37:19.655Z,63.90
2023-02-22T08:39:46.521Z,64.30
2023-02-22T08:42:13.349Z,65.40
2023-02-22T08:44:40.453Z,64.30
2023-02-22T08:47:07.408Z,64.20
2023-02-22T08:49:34.200Z,64.30
2023-02-22T08:52:01.472Z,64.30
2023-02-22T08:54:28.279Z,64.60
2023-02-22T08:56:55.043Z,64.60
2023-02-22T08:59:21.948Z,64.60
2023-02-22T09:01:48.824Z,64.60
2023-02-22T09:04:15.573Z,64.70
2023-02-22T09:06:43.111Z,64.70
2023-02-22T09:09:10.008Z,64.80
2023-02-22T09:11:36.869Z,64.80
2023-02-22T09:14:03.681Z,65.00
2023-02-22T09:16:31.195Z,65.60
2023-02-22T09:18:57.988Z,65.00
2023-02-22T09:21:24.744Z,65.20
2023-02-22T09:23:54.721Z,65.20
2023-02-22T09:26:23.662Z,65.10
2023-02-22T09:28:50.901Z,65.30
2023-02-22T09:31:18.130Z,65.30
2023-02-22T09:33:47.129Z,65.40
2023-02-22T09:36:14.447Z,65.20
2023-02-22T09:38:41.363Z,65.30
2023-02-22T09:41:35.205Z,65.40
2023-02-22T09:44:06.983Z,65.30
2023-02-22T09:46:35.401Z,65.40
2023-02-22T09:49:13.994Z,65.30
2023-02-22T09:51:52.874Z,65.20
2023-02-22T09:54:34.662Z,65.20
2023-02-22T09:57:04.634Z,65.30
2023-02-22T09:59:34.816Z,65.40
2023-02-22T10:02:29.633Z,65.30
2023-02-22T10:05:05.892Z,65.50
2023-02-22T10:07:52.922Z,65.40
2023-02-22T10:10:21.447Z,65.50
2023-02-22T10:12:53.916Z,65.30
2023-02-22T10:15:30.138Z,65.30
2023-02-22T10:18:19.416Z,65.50
2023-02-22T10:21:02.965Z,65.70
2023-02-22T10:23:53.604Z,65.70
2023-02-22T10:26:25.547Z,65.70
2023-02-22T10:29:04.645Z,65.60
2023-02-22T10:31:33.664Z,65.70
2023-02-22T10:34:05.835Z,66.30
2023-02-22T10:36:34.638Z,65.70
2023-02-22T10:39:13.368Z,65.70
2023-02-22T10:41:44.735Z,65.60
2023-02-22T10:44:11.410Z,65.40
2023-02-22T10:46:39.869Z,65.30
2023-02-22T10:49:09.164Z,64.60
2023-02-22T10:51:35.964Z,64.40
2023-02-22T10:54:08.750Z,65.00
2023-02-22T10:56:35.697Z,64.40
2023-02-22T10:59:05.836Z,64.30
2023-02-22T11:01:32.615Z,64.30
2023-02-22T11:04:14.644Z,64.60
2023-02-22T11:06:44.429Z,64.70
2023-02-22T11:09:18.541Z,64.90
2023-02-22T11:11:46.749Z,64.80
2023-02-22T11:14:24.815Z,64.80
2023-02-22T11:16:56.921Z,64.80
2023-02-22T11:19:31.263Z,65.00
2023-02-22T11:22:12.481Z,64.80
2023-02-22T11:24:57.510Z,64.80
2023-02-22T11:27:28.480Z,64.80
2023-02-22T11:30:21.884Z,64.90
2023-02-22T11:32:56.848Z,64.70
2023-02-22T11:35:29.802Z,64.80
2023-02-22T11:38:10.563Z,64.80
2023-02-22T11:40:37.322Z,64.70
2023-02-22T11:43:17.353Z,64.60
2023-02-22T11:46:12.353Z,64.50
2023-02-22T11:48:41.745Z,64.60
2023-02-22T11:51:26.433Z,64.60
2023-02-22T11:54:12.101Z,64.50
2023-02-22T11:56:52.424Z,64.30
2023-02-22T11:59:26.199Z,64.30
2023-02-22T12:02:00.052Z,64.00
2023-02-22T12:04:39.354Z,64.10
2023-02-22T12:07:21.244Z,64.40
2023-02-22T12:09:56.751Z,64.30
2023-02-22T12:12:48.184Z,64.30
2023-02-22T12:15:23.789Z,64.10
2023-02-22T12:18:00.455Z,64.00
2023-02-22T12:20:55.579Z,64.00
2023-02-22T12:23:45.025Z,63.80
2023-02-22T12:26:17.085Z,63.70
2023-02-22T12:28:48.984Z,63.40
2023-02-22T12:31:20.795Z,63.60
2023-02-22T12:34:01.371Z,63.70
2023-02-22T12:36:52.910Z,63.60
2023-02-22T12:39:55.378Z,62.70
2023-02-22T12:42:30.324Z,62.00
2023-02-22T12:45:13.944Z,59.70
2023-02-22T12:47:45.829Z,59.60
2023-02-22T12:50:23.534Z,59.40
2023-02-22T12:53:03.018Z,58.40
2023-02-22T12:55:45.836Z,57.50
2023-02-22T12:58:25.882Z,56.80
2023-02-22T13:01:05.979Z,56.50
2023-02-22T13:03:38.941Z,56.20
2023-02-22T13:06:08.814Z,56.30
2023-02-22T13:08:48.080Z,57.00
2023-02-22T13:11:23.352Z,56.40
2023-02-22T13:14:11.213Z,55.40
2023-02-22T13:16:41.437Z,54.50
2023-02-22T13:19:23.206Z,54.50
2023-02-22T13:21:55.598Z,54.00
2023-02-22T13:24:33.036Z,53.80
2023-02-22T13:27:11.952Z,53.80
2023-02-22T13:29:43.381Z,53.90
2023-02-22T13:32:40.869Z,53.80
2023-02-22T13:35:10.536Z,53.40
2023-02-22T13:38:07.839Z,53.50
2023-02-22T13:41:08.500Z,53.80
2023-02-22T13:44:00.932Z,53.40
2023-02-22T13:46:58.728Z,53.50
2023-02-22T13:49:37.909Z,53.20
2023-02-22T13:52:24.737Z,53.30
2023-02-22T13:55:28.083Z,53.10
2023-02-22T13:58:03.906Z,52.80
2023-02-22T14:00:57.886Z,52.70
2023-02-22T14:03:36.090Z,53.10
2023-02-22T14:06:04.727Z,53.70
2023-02-22T14:08:31.661Z,54.00
2023-02-22T14:11:19.336Z,54.40
2023-02-22T14:13:57.051Z,54.50
2023-02-22T14:16:27.721Z,54.60
2023-02-22T14:19:09.862Z,54.70
2023-02-22T14:21:36.958Z,54.80
2023-02-22T14:24:22.113Z,55.40
2023-02-22T14:27:03.505Z,55.00
2023-02-22T14:29:30.426Z,55.10
2023-02-22T14:32:08.170Z,55.10
2023-02-22T14:34:50.169Z,55.20
2023-02-22T14:37:20.838Z,55.10
2023-02-22T14:40:02.281Z,55.20
2023-02-22T14:42:34.559Z,55.30
2023-02-22T14:45:19.488Z,55.10
2023-02-22T14:48:01.993Z,55.30
2023-02-22T14:50:36.340Z,55.30
2023-02-22T14:53:18.962Z,55.10
2023-02-22T14:55:56.685Z,55.20
2023-02-22T14:58:26.222Z,55.10
2023-02-22T15:00:53.735Z,55.00
2023-02-22T15:03:45.020Z,54.70
2023-02-22T15:06:20.000Z,54.70
2023-02-22T15:08:49.893Z,54.00
2023-02-22T15:11:31.060Z,53.90
2023-02-22T15:13:58.188Z,53.90
2023-02-22T15:16:26.880Z,53.90
2023-02-22T15:18:55.196Z,53.60
2023-02-22T15:21:24.969Z,53.80
2023-02-22T15:23:56.286Z,53.80
2023-02-22T15:26:35.214Z,53.80
2023-02-22T15:29:02.594Z,54.20
2023-02-22T15:31:36.971Z,54.00
2023-02-22T15:34:10.724Z,54.10
2023-02-22T15:36:37.544Z,54.00
2023-02-22T15:39:08.850Z,54.00
2023-02-22T15:41:35.688Z,54.00
2023-02-22T15:44:22.753Z,54.00
2023-02-22T15:46:54.416Z,53.90
2023-02-22T15:49:23.302Z,54.00
2023-02-22T15:52:19.727Z,54.00
2023-02-22T15:54:48.152Z,54.00
2023-02-22T15:57:16.557Z,53.80
2023-02-22T15:59:45.844Z,53.70
2023-02-22T16:02:30.153Z,53.70
2023-02-22T16:05:12.087Z,53.70
2023-02-22T16:07:41.961Z,53.50
2023-02-22T16:10:17.131Z,53.40
2023-02-22T16:12:43.972Z,53.40
2023-02-22T16:15:18.235Z,53.80
2023-02-22T16:18:00.953Z,53.70
2023-02-22T16:20:30.182Z,53.60
2023-02-22T16:22:57.671Z,53.70
2023-02-22T16:25:29.006Z,53.70
2023-02-22T16:28:01.576Z,53.60
2023-02-22T16:30:35.778Z,53.70
2023-02-22T16:33:09.988Z,53.70
2023-02-22T16:35:36.791Z,53.70
2023-02-22T16:38:08.033Z,53.80
2023-02-22T16:40:55.923Z,53.50
2023-02-22T16:43:24.619Z,53.70
2023-02-22T16:45:53.065Z,53.70
2023-02-22T16:48:23.151Z,53.90
2023-02-22T16:50:51.458Z,53.80
2023-02-22T16:53:20.062Z,54.00
2023-02-22T16:55:50.775Z,54.00
2023-02-22T16:58:18.059Z,54.00
2023-02-22T17:00:45.057Z,54.00
2023-02-22T17:03:16.009Z,54.00
2023-02-22T17:05:43.156Z,54.10
2023-02-22T17:08:09.895Z,54.00
2023-02-22T17:10:36.820Z,54.80
2023-02-22T17:13:20.137Z,55.00
2023-02-22T17:15:49.242Z,55.00
2023-02-22T17:18:17.112Z,55.00
2023-02-22T17:20:45.019Z,55.00
2023-02-22T17:23:12.418Z,55.10
2023-02-22T17:25:41.051Z,55.20
2023-02-22T17:28:08.032Z,55.20
2023-02-22T17:30:36.040Z,55.20
2023-02-22T17:33:04.418Z,55.30
2023-02-22T17:35:36.897Z,55.30
2023-02-22T17:38:06.192Z,55.30
2023-02-22T17:40:34.463Z,55.30
2023-02-22T17:43:01.910Z,55.40
2023-02-22T17:45:28.882Z,55.50
2023-02-22T17:47:55.652Z,56.40
2023-02-22T17:50:22.673Z,55.70
2023-02-22T17:52:51.618Z,55.60
2023-02-22T17:55:21.687Z,55.60
2023-02-22T17:57:50.007Z,55.70
2023-02-22T18:00:23.504Z,56.00
2023-02-22T18:02:51.559Z,56.10
2023-02-22T18:05:18.456Z,56.10
2023-02-22T18:07:45.630Z,55.90
2023-02-22T18:10:12.604Z,55.90
2023-02-22T18:12:39.720Z,55.90
2023-02-22T18:15:08.587Z,56.10
2023-02-22T18:17:36.895Z,56.10
2023-02-22T18:20:11.695Z,55.90
2023-02-22T18:22:43.220Z,56.10
2023-02-22T18:25:16.810Z,56.20
2023-02-22T18:27:43.582Z,56.30
2023-02-22T18:30:12.045Z,56.30
2023-02-22T18:32:39.515Z,56.30
2023-02-22T18:35:06.835Z,56.20
2023-02-22T18:37:34.099Z,56.30
2023-02-22T18:40:01.118Z,56.30
2023-02-22T18:42:28.805Z,56.50
2023-02-22T18:45:00.714Z,56.50
2023-02-22T18:47:27.582Z,56.50
2023-02-22T18:49:54.518Z,56.50
2023-02-22T18:52:21.369Z,56.50
2023-02-22T18:54:48.603Z,56.50
2023-02-22T18:57:15.640Z,56.40
2023-02-22T18:59:42.648Z,56.60
2023-02-22T19:02:17.398Z,56.60
2023-02-22T19:04:44.931Z,56.60
2023-02-22T19:07:17.962Z,56.60
2023-02-22T19:09:44.990Z,56.60
2023-02-22T19:12:11.964Z,56.70
2023-02-22T19:14:38.814Z,57.20
2023-02-22T19:17:07.436Z,56.70
2023-02-22T19:19:34.536Z,56.80
2023-02-22T19:22:01.511Z,57.10
2023-02-22T19:24:28.701Z,57.20
2023-02-22T19:26:57.557Z,57.10
2023-02-22T19:29:24.343Z,57.10
2023-02-22T19:31:51.740Z,57.10
2023-02-22T19:34:21.793Z,57.10
2023-02-22T19:36:48.682Z,57.40
2023-02-22T19:39:16.836Z,57.40
2023-02-22T19:41:43.588Z,57.60
2023-02-22T19:44:10.674Z,57.60
2023-02-22T19:46:37.888Z,57.60
2023-02-22T19:49:05.088Z,57.50
2023-02-22T19:51:32.120Z,58.10
2023-02-22T19:54:06.547Z,57.70
2023-02-22T19:56:35.338Z,57.90
2023-02-22T19:59:09.270Z,58.10
2023-02-22T20:01:36.740Z,58.10
2023-02-22T20:04:05.541Z,58.00
2023-02-22T20:06:34.992Z,58.00
2023-02-22T20:09:02.723Z,58.00
2023-02-22T20:11:29.532Z,58.10
2023-02-22T20:13:56.242Z,58.20
2023-02-22T20:16:23.541Z,58.20
2023-02-22T20:18:50.449Z,58.10
2023-02-22T20:21:31.236Z,58.20
2023-02-22T20:24:08.535Z,58.40
2023-02-22T20:26:36.509Z,58.40
2023-02-22T20:29:04.218Z,58.30
2023-02-22T20:31:31.402Z,58.30
2023-02-22T20:33:59.730Z,58.30
2023-02-22T20:36:27.465Z,58.30
2023-02-22T20:38:55.355Z,58.30
2023-02-22T20:41:26.856Z,58.40
2023-02-22T20:43:55.124Z,58.70
2023-02-22T20:46:23.448Z,58.70
2023-02-22T20:48:53.789Z,58.60
2023-02-22T20:51:20.794Z,58.60
2023-02-22T20:53:47.877Z,58.50
2023-02-22T20:56:15.567Z,58.40
2023-02-22T20:58:42.446Z,58.40
2023-02-22T21:01:12.133Z,58.60
2023-02-22T21:03:38.940Z,58.70
2023-02-22T21:06:06.178Z,58.80
2023-02-22T21:08:33.058Z,58.90
2023-02-22T21:11:00.290Z,58.90
2023-02-22T21:13:27.121Z,58.90
2023-02-22T21:15:53.962Z,59.00
2023-02-22T21:18:20.877Z,59.10
2023-02-22T21:20:48.656Z,59.20
2023-02-22T21:23:15.800Z,59.10
2023-02-22T21:25:53.647Z,59.00
2023-02-22T21:28:20.640Z,58.80
2023-02-22T21:30:47.578Z,58.70
2023-02-22T21:33:17.984Z,58.80
2023-02-22T21:35:47.027Z,58.80
2023-02-22T21:38:14.549Z,59.00
2023-02-22T21:40:42.064Z,59.00
2023-02-22T21:43:10.668Z,59.00
2023-02-22T21:45:37.853Z,59.10
2023-02-22T21:48:05.182Z,59.10
2023-02-22T21:50:32.097Z,59.10
2023-02-22T21:52:59.248Z,59.20
2023-02-22T21:55:26.163Z,59.80
2023-02-22T21:57:53.145Z,59.20
2023-02-22T22:00:29.092Z,59.00
2023-02-22T22:03:08.406Z,59.00
2023-02-22T22:05:38.536Z,59.30
2023-02-22T22:08:07.482Z,59.30
2023-02-22T22:10:36.069Z,59.40
2023-02-22T22:13:02.765Z,59.40
2023-02-22T22:15:31.714Z,59.30
2023-02-22T22:18:06.097Z,59.20
2023-02-22T22:20:33.232Z,59.30
2023-02-22T22:23:00.368Z,59.20
2023-02-22T22:25:28.747Z,59.30
2023-02-22T22:27:56.392Z,59.30
2023-02-22T22:30:23.376Z,59.30
2023-02-22T22:32:51.337Z,59.30
2023-02-22T22:35:18.138Z,59.50
2023-02-22T22:37:51.372Z,59.50
2023-02-22T22:40:18.400Z,59.30
2023-02-22T22:42:45.654Z,59.30
2023-02-22T22:45:13.711Z,59.40
2023-02-22T22:47:46.120Z,59.20
2023-02-22T22:50:14.400Z,59.30
2023-02-22T22:52:41.220Z,59.50
2023-02-22T22:55:12.010Z,59.50
2023-02-22T22:57:39.433Z,59.60
2023-02-22T23:00:30.341Z,59.60
2023-02-22T23:02:57.356Z,59.60
2023-02-22T23:05:28.315Z,59.70
2023-02-22T23:08:04.890Z,59.70
2023-02-22T23:10:39.246Z,59.60
2023-02-22T23:13:10.058Z,59.50
2023-02-22T23:15:41.018Z,59.40
2023-02-22T23:18:07.959Z,59.50
2023-02-22T23:20:38.953Z,59.50
2023-02-22T23:23:06.137Z,59.60
2023-02-22T23:25:38.937Z,59.60
2023-02-22T23:28:14.565Z,59.70
2023-02-22T23:30:41.893Z,59.70
2023-02-22T23:33:08.632Z,59.70
2023-02-22T23:35:35.437Z,59.80
2023-02-22T23:38:02.233Z,59.80
2023-02-22T23:40:29.252Z,59.70
2023-02-22T23:42:55.987Z,59.80
2023-02-22T23:45:23.259Z,59.90
2023-02-22T23:47:54.745Z,59.80
2023-02-22T23:50:28.990Z,59.90
2023-02-22T23:53:00.219Z,59.80
2023-02-22T23:55:28.630Z,59.50
2023-02-22T23:58:01.137Z,59.80
